createdAt,value
2019-03-16T00:01:23.425Z,2.53
2019-03-16T00:03:54.415Z,2.55
2019-03-16T00:06:26.505Z,2.53
2019-03-16T00:08:57.846Z,2.50
2019-03-16T00:11:29.091Z,2.57
2019-03-16T00:14:00.072Z,2.53
2019-03-16T00:16:31.112Z,2.61
2019-03-16T00:19:02.090Z,2.59
2019-03-16T00:21:33.260Z,2.51
2019-03-16T00:24:04.245Z,2.48
2019-03-16T00:26:35.332Z,2.42
2019-03-16T00:29:06.486Z,2.38
2019-03-16T00:31:37.622Z,2.35
2019-03-16T00:34:08.712Z,2.37
2019-03-16T00:36:39.818Z,2.47
2019-03-16T00:39:10.846Z,2.39
2019-03-16T00:41:41.917Z,2.39
2019-03-16T00:44:13.041Z,2.47
2019-03-16T00:46:44.077Z,2.51
2019-03-16T00:49:15.131Z,2.52
2019-03-16T00:51:46.309Z,2.40
2019-03-16T00:54:17.450Z,2.35
2019-03-16T00:56:48.424Z,2.41
2019-03-16T00:59:19.532Z,2.45
2019-03-16T01:01:50.665Z,2.45
2019-03-16T01:04:21.736Z,2.56
2019-03-16T01:06:53.435Z,2.59
2019-03-16T01:09:24.971Z,2.54
2019-03-16T01:11:56.151Z,2.51
2019-03-16T01:14:27.309Z,2.52
2019-03-16T01:16:58.417Z,2.48
2019-03-16T01:19:29.467Z,2.56
2019-03-16T01:22:00.675Z,2.54
2019-03-16T01:24:31.653Z,2.43
2019-03-16T01:27:02.805Z,2.33
2019-03-16T01:29:33.944Z,2.34
2019-03-16T01:32:04.981Z,2.25
2019-03-16T01:34:36.134Z,2.37
2019-03-16T01:37:07.188Z,2.40
2019-03-16T01:39:38.347Z,2.44
2019-03-16T01:42:09.313Z,2.36
2019-03-16T01:44:40.431Z,2.43
2019-03-16T01:47:11.431Z,2.50
2019-03-16T01:49:42.443Z,2.52
2019-03-16T01:52:13.832Z,2.49
2019-03-16T01:54:44.829Z,2.40
2019-03-16T01:57:15.900Z,2.34
2019-03-16T01:59:48.257Z,2.36
2019-03-16T02:02:19.232Z,2.44
2019-03-16T02:04:50.364Z,2.41
2019-03-16T02:07:21.406Z,2.45
2019-03-16T02:09:52.437Z,2.56
2019-03-16T02:12:23.976Z,2.50
2019-03-16T02:14:55.054Z,2.47
2019-03-16T02:17:26.084Z,2.54
2019-03-16T02:19:57.110Z,2.49
2019-03-16T02:22:28.115Z,2.49
2019-03-16T02:24:59.271Z,2.53
2019-03-16T02:27:30.366Z,2.54
2019-03-16T02:30:01.561Z,2.52
2019-03-16T02:32:32.604Z,2.44
2019-03-16T02:35:04.926Z,2.41
2019-03-16T02:37:35.938Z,2.46
2019-03-16T02:40:09.147Z,2.41
2019-03-16T02:42:40.166Z,2.34
2019-03-16T02:45:11.305Z,2.31
2019-03-16T02:47:42.352Z,2.34
2019-03-16T02:50:14.029Z,2.39
2019-03-16T02:52:49.323Z,2.33
2019-03-16T02:55:17.856Z,2.38
2019-03-16T02:57:48.844Z,2.40
2019-03-16T03:00:19.898Z,2.34
2019-03-16T03:02:51.021Z,2.23
2019-03-16T03:05:22.064Z,2.25
2019-03-16T03:07:54.532Z,2.25
2019-03-16T03:10:25.689Z,2.24
2019-03-16T03:12:56.785Z,2.16
2019-03-16T03:15:27.866Z,2.14
2019-03-16T03:17:59.922Z,2.12
2019-03-16T03:20:31.110Z,2.03
2019-03-16T03:23:02.181Z,2.08
2019-03-16T03:25:33.526Z,2.04
2019-03-16T03:28:04.558Z,2.07
2019-03-16T03:30:35.734Z,2.08
2019-03-16T03:33:06.851Z,2.13
2019-03-16T03:35:37.891Z,2.17
2019-03-16T03:38:08.944Z,2.18
2019-03-16T03:40:39.988Z,2.27
2019-03-16T03:43:11.016Z,2.22
2019-03-16T03:45:42.068Z,2.28
2019-03-16T03:48:13.047Z,2.26
2019-03-16T03:50:44.158Z,2.30
2019-03-16T03:53:15.195Z,2.18
2019-03-16T03:55:46.339Z,2.10
2019-03-16T03:58:17.372Z,2.15
2019-03-16T04:00:48.357Z,2.19
2019-03-16T04:03:19.523Z,2.26
2019-03-16T04:05:50.603Z,2.15
2019-03-16T04:08:21.770Z,2.12
2019-03-16T04:10:52.792Z,2.17
2019-03-16T04:13:23.833Z,2.14
2019-03-16T04:15:54.874Z,2.22
2019-03-16T04:18:26.006Z,2.24
2019-03-16T04:20:57.067Z,2.12
2019-03-16T04:23:28.103Z,2.17
2019-03-16T04:25:59.143Z,2.25
2019-03-16T04:28:30.176Z,2.33
2019-03-16T04:31:01.293Z,2.27
2019-03-16T04:33:32.370Z,2.12
2019-03-16T04:36:03.479Z,2.18
2019-03-16T04:38:34.624Z,2.11
2019-03-16T04:41:05.738Z,2.21
2019-03-16T04:43:36.713Z,2.10
2019-03-16T04:46:07.817Z,2.08
2019-03-16T04:48:38.927Z,2.05
2019-03-16T04:51:10.003Z,2.03
2019-03-16T04:53:41.113Z,1.98
2019-03-16T04:56:12.178Z,1.95
2019-03-16T04:58:43.301Z,2.16
2019-03-16T05:01:15.392Z,2.09
2019-03-16T05:03:46.520Z,2.07
2019-03-16T05:06:17.589Z,2.04
2019-03-16T05:08:48.572Z,2.04
2019-03-16T05:11:19.737Z,2.26
2019-03-16T05:13:50.771Z,2.50
2019-03-16T05:16:21.852Z,2.64
2019-03-16T05:18:52.826Z,2.43
2019-03-16T05:21:23.918Z,2.44
2019-03-16T05:23:54.899Z,2.45
2019-03-16T05:26:25.971Z,2.17
2019-03-16T05:28:57.105Z,2.08
2019-03-16T05:31:28.165Z,2.10
2019-03-16T05:33:59.385Z,2.23
2019-03-16T05:36:30.521Z,2.08
2019-03-16T05:39:01.596Z,2.32
2019-03-16T05:41:33.977Z,2.51
2019-03-16T05:44:04.995Z,2.40
2019-03-16T05:46:35.957Z,2.65
2019-03-16T05:49:06.996Z,2.66
2019-03-16T05:51:38.076Z,2.82
2019-03-16T05:54:08.966Z,3.01
2019-03-16T05:56:40.022Z,3.12
2019-03-16T05:59:11.103Z,3.00
2019-03-16T06:01:42.140Z,3.01
2019-03-16T06:04:13.145Z,3.09
2019-03-16T06:06:44.717Z,3.23
2019-03-16T06:09:15.741Z,3.38
2019-03-16T06:11:46.892Z,3.43
2019-03-16T06:14:18.013Z,3.58
2019-03-16T06:16:49.087Z,3.55
2019-03-16T06:19:20.192Z,3.62
2019-03-16T06:21:51.366Z,3.63
2019-03-16T06:24:22.465Z,3.92
2019-03-16T06:26:53.484Z,3.81
2019-03-16T06:29:24.561Z,3.99
2019-03-16T06:31:55.834Z,3.94
2019-03-16T06:34:26.985Z,4.15
2019-03-16T06:36:58.152Z,4.47
2019-03-16T06:39:29.159Z,4.20
2019-03-16T06:42:00.059Z,4.23
2019-03-16T06:44:31.002Z,4.23
2019-03-16T06:47:02.061Z,4.47
2019-03-16T06:49:33.026Z,4.54
2019-03-16T06:52:03.966Z,4.61
2019-03-16T06:54:35.074Z,4.63
2019-03-16T06:57:06.039Z,4.79
2019-03-16T06:59:37.062Z,4.69
2019-03-16T07:02:08.024Z,5.04
2019-03-16T07:04:38.961Z,5.07
2019-03-16T07:07:09.927Z,5.24
2019-03-16T07:09:40.992Z,5.41
2019-03-16T07:12:12.058Z,5.51
2019-03-16T07:14:44.152Z,5.70
2019-03-16T07:17:15.671Z,5.88
2019-03-16T07:19:46.854Z,5.84
2019-03-16T07:22:19.031Z,5.93
2019-03-16T07:24:51.822Z,6.25
2019-03-16T07:27:26.297Z,6.27
2019-03-16T07:29:55.896Z,6.41
2019-03-16T07:32:27.142Z,6.62
2019-03-16T07:34:58.222Z,6.58
2019-03-16T07:37:29.531Z,6.45
2019-03-16T07:40:00.731Z,6.29
2019-03-16T07:42:32.751Z,6.52
2019-03-16T07:45:08.422Z,6.67
2019-03-16T07:47:38.361Z,6.66
2019-03-16T07:50:11.554Z,6.76
2019-03-16T07:52:42.692Z,6.68
2019-03-16T07:55:15.257Z,6.88
2019-03-16T07:57:46.277Z,7.15
2019-03-16T08:00:17.329Z,7.15
2019-03-16T08:02:48.830Z,7.40
2019-03-16T08:05:20.031Z,7.50
2019-03-16T08:07:51.187Z,7.73
2019-03-16T08:10:22.115Z,7.73
2019-03-16T08:12:53.133Z,7.89
2019-03-16T08:15:24.287Z,7.94
2019-03-16T08:17:55.585Z,7.94
2019-03-16T08:20:26.910Z,8.17
2019-03-16T08:22:57.944Z,8.02
2019-03-16T08:25:29.125Z,8.18
2019-03-16T08:28:00.505Z,8.08
2019-03-16T08:30:31.649Z,8.43
2019-03-16T08:33:02.967Z,8.50
2019-03-16T08:35:34.050Z,8.58
2019-03-16T08:38:05.284Z,8.81
2019-03-16T08:40:36.654Z,8.70
2019-03-16T08:43:08.318Z,8.96
2019-03-16T08:45:39.366Z,9.06
2019-03-16T08:48:22.237Z,9.20
2019-03-16T08:50:43.196Z,9.13
2019-03-16T08:53:14.345Z,9.07
2019-03-16T08:55:45.273Z,9.16
2019-03-16T08:58:16.550Z,9.14
2019-03-16T09:00:47.812Z,9.06
2019-03-16T09:03:19.051Z,9.01
2019-03-16T09:05:50.041Z,9.26
2019-03-16T09:08:24.317Z,9.73
2019-03-16T09:10:55.412Z,9.57
2019-03-16T09:13:26.617Z,9.53
2019-03-16T09:15:57.505Z,9.22
2019-03-16T09:18:28.575Z,9.11
2019-03-16T09:20:59.586Z,9.28
2019-03-16T09:23:30.825Z,9.59
2019-03-16T09:26:02.094Z,9.46
2019-03-16T09:28:33.308Z,9.53
2019-03-16T09:31:12.339Z,9.78
2019-03-16T09:33:46.919Z,10.02
2019-03-16T09:36:18.284Z,10.29
2019-03-16T09:38:49.341Z,10.16
2019-03-16T09:41:20.509Z,10.11
2019-03-16T09:43:51.661Z,10.51
2019-03-16T09:46:24.442Z,10.70
2019-03-16T09:48:58.956Z,10.35
2019-03-16T09:51:31.204Z,10.46
2019-03-16T09:54:03.760Z,10.49
2019-03-16T09:56:35.601Z,10.33
2019-03-16T09:59:07.221Z,10.19
2019-03-16T10:01:38.986Z,10.37
2019-03-16T10:04:14.355Z,10.12
2019-03-16T10:06:45.975Z,9.99
2019-03-16T10:09:17.201Z,10.17
2019-03-16T10:11:48.462Z,10.05
2019-03-16T10:14:20.005Z,10.09
2019-03-16T10:16:51.128Z,10.03
2019-03-16T10:19:22.404Z,9.97
2019-03-16T10:21:53.350Z,10.03
2019-03-16T10:24:24.544Z,10.13
2019-03-16T10:26:55.727Z,10.10
2019-03-16T10:29:26.804Z,9.99
2019-03-16T10:31:57.704Z,10.15
2019-03-16T10:34:28.979Z,10.27
2019-03-16T10:37:00.199Z,10.37
2019-03-16T10:39:31.523Z,10.29
2019-03-16T10:42:02.505Z,10.10
2019-03-16T10:44:33.685Z,10.21
2019-03-16T10:47:06.290Z,10.24
2019-03-16T10:49:37.414Z,10.28
2019-03-16T10:52:08.778Z,10.29
2019-03-16T10:54:39.729Z,10.34
2019-03-16T10:57:10.891Z,10.36
2019-03-16T10:59:43.029Z,10.44
2019-03-16T11:02:14.002Z,10.35
2019-03-16T11:04:44.984Z,10.35
2019-03-16T11:07:16.054Z,10.39
2019-03-16T11:09:47.308Z,10.40
2019-03-16T11:12:18.387Z,10.44
2019-03-16T11:14:49.496Z,10.32
2019-03-16T11:17:20.568Z,10.40
2019-03-16T11:19:51.641Z,10.54
2019-03-16T11:22:22.957Z,10.61
2019-03-16T11:24:55.246Z,10.58
2019-03-16T11:27:26.314Z,10.58
2019-03-16T11:29:57.458Z,10.57
2019-03-16T11:32:28.452Z,10.59
2019-03-16T11:34:59.637Z,10.57
2019-03-16T11:37:30.830Z,10.37
2019-03-16T11:40:01.823Z,10.33
2019-03-16T11:42:32.924Z,10.58
2019-03-16T11:45:06.344Z,10.66
2019-03-16T11:47:36.831Z,10.70
2019-03-16T11:50:09.579Z,10.78
2019-03-16T11:52:40.560Z,10.82
2019-03-16T11:55:11.551Z,10.92
2019-03-16T11:57:42.697Z,10.98
2019-03-16T12:00:14.684Z,10.91
2019-03-16T12:02:46.349Z,10.76
2019-03-16T12:05:17.458Z,10.83
2019-03-16T12:07:48.677Z,10.81
2019-03-16T12:10:19.719Z,10.51
2019-03-16T12:12:50.699Z,10.53
2019-03-16T12:15:21.822Z,10.64
2019-03-16T12:17:53.104Z,10.67
2019-03-16T12:20:24.287Z,10.71
2019-03-16T12:22:55.972Z,10.73
2019-03-16T12:25:27.190Z,10.80
2019-03-16T12:27:58.223Z,10.73
2019-03-16T12:30:29.087Z,10.78
2019-03-16T12:33:00.199Z,10.75
2019-03-16T12:35:31.237Z,10.79
2019-03-16T12:38:02.250Z,10.90
2019-03-16T12:40:33.237Z,10.92
2019-03-16T12:43:04.109Z,10.91
2019-03-16T12:45:35.091Z,11.00
2019-03-16T12:48:06.051Z,10.87
2019-03-16T12:50:36.913Z,10.82
2019-03-16T12:53:07.816Z,10.85
2019-03-16T12:55:38.834Z,10.69
2019-03-16T12:58:09.795Z,10.67
2019-03-16T13:00:40.782Z,10.72
2019-03-16T13:03:11.778Z,10.68
2019-03-16T13:05:42.764Z,10.73
2019-03-16T13:08:13.758Z,10.86
2019-03-16T13:10:44.757Z,10.91
2019-03-16T13:13:15.617Z,10.88
2019-03-16T13:15:46.623Z,11.04
2019-03-16T13:18:17.616Z,11.08
2019-03-16T13:20:48.711Z,10.96
2019-03-16T13:23:19.604Z,10.85
2019-03-16T13:25:50.679Z,10.88
2019-03-16T13:28:21.677Z,10.77
2019-03-16T13:30:52.709Z,10.77
2019-03-16T13:33:23.746Z,10.70
2019-03-16T13:35:54.735Z,10.68
2019-03-16T13:38:25.640Z,10.67
2019-03-16T13:40:56.726Z,10.75
2019-03-16T13:43:27.651Z,10.78
2019-03-16T13:45:58.562Z,10.90
2019-03-16T13:48:29.652Z,10.89
2019-03-16T13:51:00.535Z,10.83
2019-03-16T13:53:32.694Z,10.81
2019-03-16T13:56:04.931Z,10.87
2019-03-16T13:58:36.136Z,10.85
2019-03-16T14:01:07.137Z,10.84
2019-03-16T14:03:39.266Z,10.82
2019-03-16T14:06:11.603Z,10.74
2019-03-16T14:08:42.545Z,10.67
2019-03-16T14:11:13.612Z,10.58
2019-03-16T14:13:44.643Z,10.54
2019-03-16T14:16:15.853Z,10.56
2019-03-16T14:18:46.824Z,10.52
2019-03-16T14:21:17.749Z,10.53
2019-03-16T14:23:49.379Z,10.57
2019-03-16T14:26:20.293Z,10.57
2019-03-16T14:28:51.177Z,10.56
2019-03-16T14:31:22.113Z,10.53
2019-03-16T14:33:53.291Z,10.55
2019-03-16T14:36:24.326Z,10.50
2019-03-16T14:38:55.276Z,10.45
2019-03-16T14:41:26.426Z,10.12
2019-03-16T14:43:57.630Z,9.76
2019-03-16T14:46:28.591Z,9.51
2019-03-16T14:49:00.085Z,9.37
2019-03-16T14:51:31.569Z,9.35
2019-03-16T14:54:02.577Z,9.32
2019-03-16T14:56:33.471Z,9.23
2019-03-16T14:59:04.413Z,9.21
2019-03-16T15:01:35.547Z,9.23
2019-03-16T15:04:06.706Z,9.28
2019-03-16T15:06:37.731Z,9.33
2019-03-16T15:09:08.725Z,9.36
2019-03-16T15:11:41.421Z,9.31
2019-03-16T15:14:21.601Z,9.31
2019-03-16T15:16:45.492Z,9.29
2019-03-16T15:19:16.509Z,9.31
2019-03-16T15:21:47.472Z,9.55
2019-03-16T15:24:18.540Z,9.48
2019-03-16T15:26:49.562Z,9.44
2019-03-16T15:29:20.658Z,9.40
2019-03-16T15:31:51.746Z,9.46
2019-03-16T15:34:22.847Z,9.43
2019-03-16T15:36:53.929Z,9.39
2019-03-16T15:39:25.040Z,9.24
2019-03-16T15:41:56.094Z,9.08
2019-03-16T15:44:26.957Z,8.99
2019-03-16T15:46:57.942Z,8.97
2019-03-16T15:49:28.929Z,8.93
2019-03-16T15:52:00.568Z,8.87
2019-03-16T15:54:31.513Z,8.88
2019-03-16T15:57:02.505Z,8.86
2019-03-16T15:59:33.447Z,8.85
2019-03-16T16:02:05.490Z,8.87
2019-03-16T16:04:36.615Z,8.87
2019-03-16T16:07:07.896Z,8.92
2019-03-16T16:09:38.843Z,8.96
2019-03-16T16:12:10.892Z,8.94
2019-03-16T16:14:42.074Z,8.95
2019-03-16T16:17:13.173Z,9.01
2019-03-16T16:19:44.255Z,9.14
2019-03-16T16:22:17.298Z,9.08
2019-03-16T16:24:48.459Z,9.04
2019-03-16T16:27:20.029Z,9.07
2019-03-16T16:29:51.257Z,9.01
2019-03-16T16:32:22.364Z,8.98
2019-03-16T16:34:53.510Z,8.97
2019-03-16T16:37:24.766Z,8.92
2019-03-16T16:39:55.803Z,8.88
2019-03-16T16:42:27.154Z,8.98
2019-03-16T16:44:58.297Z,8.99
2019-03-16T16:47:29.453Z,9.07
2019-03-16T16:50:00.466Z,9.02
2019-03-16T16:52:31.672Z,9.07
2019-03-16T16:55:02.807Z,9.13
2019-03-16T16:57:34.671Z,9.21
2019-03-16T17:00:17.919Z,9.24
2019-03-16T17:02:48.938Z,9.31
2019-03-16T17:05:19.929Z,9.35
2019-03-16T17:07:50.994Z,9.40
2019-03-16T17:10:22.024Z,9.46
2019-03-16T17:12:52.984Z,9.50
2019-03-16T17:15:24.542Z,9.53
2019-03-16T17:17:55.568Z,9.44
2019-03-16T17:20:26.500Z,9.32
2019-03-16T17:22:57.431Z,9.25
2019-03-16T17:25:28.301Z,9.21
2019-03-16T17:27:59.494Z,9.20
2019-03-16T17:30:34.464Z,9.10
2019-03-16T17:33:05.399Z,8.96
2019-03-16T17:35:36.442Z,8.77
2019-03-16T17:38:07.479Z,8.18
2019-03-16T17:40:38.420Z,7.69
2019-03-16T17:43:10.193Z,7.55
2019-03-16T17:45:41.205Z,7.46
2019-03-16T17:48:12.423Z,7.23
2019-03-16T17:50:43.393Z,7.23
2019-03-16T17:53:14.341Z,6.76
2019-03-16T17:55:46.388Z,6.76
2019-03-16T17:58:17.412Z,6.54
2019-03-16T18:00:48.555Z,6.54
2019-03-16T18:03:19.843Z,6.49
2019-03-16T18:05:50.954Z,6.47
2019-03-16T18:08:21.923Z,6.47
2019-03-16T18:10:52.810Z,6.34
2019-03-16T18:13:23.881Z,6.34
2019-03-16T18:15:54.902Z,6.30
2019-03-16T18:18:25.885Z,6.29
2019-03-16T18:20:56.894Z,6.24
2019-03-16T18:23:28.227Z,6.25
2019-03-16T18:25:59.277Z,6.27
2019-03-16T18:28:30.246Z,6.22
2019-03-16T18:31:01.300Z,6.15
2019-03-16T18:33:32.447Z,6.15
2019-03-16T18:36:03.592Z,6.19
2019-03-16T18:38:34.797Z,6.20
2019-03-16T18:41:05.784Z,6.18
2019-03-16T18:43:36.876Z,6.18
2019-03-16T18:46:08.733Z,6.13
2019-03-16T18:48:39.902Z,6.05
2019-03-16T18:51:11.159Z,6.07
2019-03-16T18:53:42.120Z,6.02
2019-03-16T18:56:13.062Z,5.95
2019-03-16T18:58:43.975Z,5.95
2019-03-16T19:01:15.027Z,5.96
2019-03-16T19:03:45.983Z,5.89
2019-03-16T19:06:17.019Z,5.85
2019-03-16T19:08:48.034Z,5.83
2019-03-16T19:11:19.051Z,5.78
2019-03-16T19:13:50.196Z,5.77
2019-03-16T19:16:21.074Z,5.74
2019-03-16T19:18:52.175Z,5.75
2019-03-16T19:21:23.373Z,5.69
2019-03-16T19:23:54.554Z,5.63
2019-03-16T19:26:25.503Z,5.63
2019-03-16T19:28:56.621Z,5.59
2019-03-16T19:31:27.627Z,5.53
2019-03-16T19:33:58.708Z,5.53
2019-03-16T19:36:29.766Z,5.48
2019-03-16T19:39:01.925Z,5.47
2019-03-16T19:41:34.153Z,5.42
2019-03-16T19:44:05.328Z,5.44
2019-03-16T19:46:36.394Z,5.39
2019-03-16T19:49:07.629Z,5.28
2019-03-16T19:51:38.685Z,5.27
2019-03-16T19:54:09.552Z,5.29
2019-03-16T19:56:40.598Z,5.22
2019-03-16T19:59:11.630Z,5.19
2019-03-16T20:01:42.501Z,5.20
2019-03-16T20:04:13.780Z,5.21
2019-03-16T20:06:45.865Z,5.24
2019-03-16T20:09:16.876Z,5.19
2019-03-16T20:11:48.045Z,5.19
2019-03-16T20:14:19.124Z,5.31
2019-03-16T20:16:50.101Z,5.25
2019-03-16T20:19:21.035Z,5.23
2019-03-16T20:21:51.945Z,5.18
2019-03-16T20:24:22.996Z,5.23
2019-03-16T20:26:53.885Z,5.22
2019-03-16T20:29:24.853Z,5.23
2019-03-16T20:31:55.857Z,5.30
2019-03-16T20:34:32.972Z,5.33
2019-03-16T20:37:03.970Z,5.35
2019-03-16T20:39:35.070Z,5.38
2019-03-16T20:42:06.213Z,5.45
2019-03-16T20:44:37.509Z,5.50
2019-03-16T20:47:08.501Z,5.53
2019-03-16T20:49:39.809Z,5.55
2019-03-16T20:52:10.969Z,5.57
2019-03-16T20:54:42.011Z,5.60
2019-03-16T20:57:12.968Z,5.58
2019-03-16T20:59:44.305Z,5.59
2019-03-16T21:02:15.358Z,5.55
2019-03-16T21:04:46.340Z,5.59
2019-03-16T21:07:17.438Z,5.63
2019-03-16T21:09:48.538Z,5.53
2019-03-16T21:12:19.626Z,5.46
2019-03-16T21:14:50.761Z,5.41
2019-03-16T21:17:21.859Z,5.36
2019-03-16T21:19:52.857Z,5.25
2019-03-16T21:22:35.298Z,5.27
2019-03-16T21:24:56.487Z,5.26
2019-03-16T21:27:27.629Z,5.19
2019-03-16T21:29:58.624Z,5.23
2019-03-16T21:32:29.493Z,5.22
2019-03-16T21:35:00.571Z,5.19
2019-03-16T21:37:31.578Z,5.18
2019-03-16T21:40:03.098Z,5.17
2019-03-16T21:42:34.247Z,5.18
2019-03-16T21:45:07.705Z,5.14
2019-03-16T21:47:38.631Z,5.13
2019-03-16T21:50:13.942Z,5.16
2019-03-16T21:52:45.265Z,5.27
2019-03-16T21:55:26.760Z,5.37
2019-03-16T21:57:57.775Z,5.24
2019-03-16T22:00:28.710Z,5.26
2019-03-16T22:02:59.592Z,5.30
2019-03-16T22:05:30.592Z,5.19
2019-03-16T22:08:01.591Z,5.24
2019-03-16T22:10:32.570Z,5.31
2019-03-16T22:13:03.573Z,5.22
2019-03-16T22:15:35.043Z,5.27
2019-03-16T22:18:05.951Z,5.28
2019-03-16T22:20:36.876Z,5.23
2019-03-16T22:23:07.846Z,5.26
2019-03-16T22:25:38.827Z,5.37
2019-03-16T22:28:10.359Z,5.77
2019-03-16T22:30:41.521Z,5.67
2019-03-16T22:33:12.534Z,5.50
2019-03-16T22:35:43.418Z,5.53
2019-03-16T22:38:14.485Z,5.40
2019-03-16T22:40:45.586Z,5.39
2019-03-16T22:43:17.180Z,5.41
2019-03-16T22:45:49.247Z,5.22
2019-03-16T22:48:20.758Z,5.15
2019-03-16T22:50:51.896Z,5.14
2019-03-16T22:53:22.786Z,5.12
2019-03-16T22:55:53.881Z,5.26
2019-03-16T22:58:24.830Z,5.17
2019-03-16T23:00:56.029Z,5.15
2019-03-16T23:03:27.059Z,5.25
2019-03-16T23:05:58.044Z,5.17
2019-03-16T23:08:28.984Z,5.19
2019-03-16T23:11:00.095Z,5.30
2019-03-16T23:13:31.192Z,5.14
2019-03-16T23:16:02.383Z,5.22
2019-03-16T23:18:36.195Z,5.17
2019-03-16T23:21:07.268Z,5.13
2019-03-16T23:23:38.127Z,5.08
2019-03-16T23:26:09.271Z,5.14
2019-03-16T23:28:40.414Z,5.12
2019-03-16T23:31:12.632Z,5.10
2019-03-16T23:33:43.839Z,5.07
2019-03-16T23:36:14.946Z,5.07
2019-03-16T23:38:45.819Z,5.02
2019-03-16T23:41:16.929Z,4.91
2019-03-16T23:43:48.102Z,4.97
2019-03-16T23:46:19.107Z,4.87
2019-03-16T23:48:50.081Z,4.85
2019-03-16T23:51:21.283Z,4.85
2019-03-16T23:53:52.200Z,4.83
2019-03-16T23:56:23.119Z,4.85
2019-03-16T23:58:55.205Z,4.81
